Time;durP1;ratioP1;P1;durP2;ratioP2;P2;SDS_P1;SDS_P2;PMS_P1;PMS_P2;Temp;Humidity;BMP_temperature;BMP_pressure;BME280_temperature;BME280_humidity;BME280_pressure;Samples;Min_cycle;Max_cycle;Signal;HPM_P1;HPM_P2
2022/10/30 00:00:06;;;;;;;54.48;32.17;;;;;;;9.70;100.00;98558.73;1679407;85;20916;-81
2022/10/30 00:02:34;;;;;;;52.05;29.15;;;;;;;9.69;100.00;98557.09;1679383;85;21031;-82
2022/10/30 00:05:00;;;;;;;51.90;29.27;;;;;;;9.70;100.00;98556.02;1679350;85;20904;-82
2022/10/30 00:07:25;;;;;;;45.78;27.37;;;;;;;9.68;100.00;98557.64;1687103;84;21068;-81
2022/10/30 00:09:51;;;;;;;46.37;26.65;;;;;;;9.67;100.00;98560.07;1704552;84;21161;-81
2022/10/30 00:12:17;;;;;;;45.92;28.05;;;;;;;9.67;100.00;98567.37;1704634;84;20929;-82
2022/10/30 00:14:43;;;;;;;52.75;28.50;;;;;;;9.64;100.00;98565.98;1704721;84;20973;-82
2022/10/30 00:17:09;;;;;;;45.85;29.50;;;;;;;9.63;100.00;98575.18;1704663;83;22088;-83
2022/10/30 00:19:35;;;;;;;55.05;36.05;;;;;;;9.57;100.00;98573.00;1704295;84;20977;-80
2022/10/30 00:22:04;;;;;;;50.67;32.13;;;;;;;9.56;100.00;98565.11;1704717;84;21141;-81
2022/10/30 00:24:30;;;;;;;48.83;30.08;;;;;;;9.54;100.00;98565.91;1705110;84;25897;-81
2022/10/30 00:26:56;;;;;;;49.18;27.30;;;;;;;9.51;100.00;98568.61;1708169;84;21561;-83
2022/10/30 00:29:25;;;;;;;48.80;27.73;;;;;;;9.51;100.00;98578.62;1707908;84;20930;-83
2022/10/30 00:31:52;;;;;;;38.33;21.65;;;;;;;9.47;100.00;98570.19;1708182;84;21061;-81
2022/10/30 00:34:18;;;;;;;47.83;23.57;;;;;;;9.50;100.00;98559.41;1707796;84;21173;-81
2022/10/30 00:36:44;;;;;;;37.35;22.55;;;;;;;9.53;100.00;98562.40;1708289;84;21418;-82
2022/10/30 00:39:10;;;;;;;44.05;24.10;;;;;;;9.56;100.00;98554.29;1707941;84;20981;-82
2022/10/30 00:41:38;;;;;;;47.17;23.85;;;;;;;9.54;100.00;98563.21;1708160;84;20875;-82
2022/10/30 00:44:46;;;;;;;48.15;25.80;;;;;;;9.53;100.00;98565.64;1694247;84;21447;-82
2022/10/30 00:47:18;;;;;;;41.73;23.25;;;;;;;9.48;100.00;98575.87;1679897;85;21111;-82
2022/10/30 00:50:05;;;;;;;44.13;24.27;;;;;;;9.44;100.00;98572.61;1679446;85;20968;-81
2022/10/30 00:52:35;;;;;;;38.13;23.25;;;;;;;9.43;100.00;98575.04;1679590;85;21487;-82
2022/10/30 00:55:07;;;;;;;40.30;23.62;;;;;;;9.41;100.00;98582.06;1679546;85;21060;-83
2022/10/30 00:57:33;;;;;;;38.78;24.37;;;;;;;9.42;100.00;98580.98;1679625;85;21067;-82
2022/10/30 00:59:59;;;;;;;38.90;22.48;;;;;;;9.41;100.00;98582.60;1679421;85;21322;-83
2022/10/30 01:02:26;;;;;;;39.08;21.52;;;;;;;9.41;100.00;98585.31;1679728;85;21016;-83
2022/10/30 01:04:52;;;;;;;36.93;21.17;;;;;;;9.45;100.00;98583.16;1679467;85;20980;-81
2022/10/30 01:07:18;;;;;;;40.70;22.13;;;;;;;9.50;100.00;98585.92;1685576;84;20878;-83
2022/10/30 01:09:44;;;;;;;41.23;20.17;;;;;;;9.48;100.00;98579.12;1714372;82;20952;-82
2022/10/30 01:12:10;;;;;;;33.38;20.45;;;;;;;9.50;100.00;98576.99;1703959;84;21120;-83
2022/10/30 01:14:39;;;;;;;34.83;20.62;;;;;;;9.51;100.00;98572.67;1714355;83;21000;-83
2022/10/30 01:17:58;;;;;;;32.55;20.77;;;;;;;9.54;100.00;98572.68;1704028;84;21401;-82
2022/10/30 01:20:55;;;;;;;33.18;20.05;;;;;;;9.55;100.00;98572.95;1714321;82;21038;-82
2022/10/30 01:23:54;;;;;;;33.58;20.43;;;;;;;9.59;100.00;98575.44;1714030;82;21036;-81
2022/10/30 01:26:45;;;;;;;36.58;20.70;;;;;;;9.61;100.00;98575.45;1773180;80;21164;-82
2022/10/30 01:30:04;;;;;;;29.77;19.62;;;;;;;9.56;100.00;98571.88;1777293;80;21436;-81
2022/10/30 01:33:00;;;;;;;31.48;18.52;;;;;;;9.52;100.00;98572.13;1777699;80;21044;-81
2022/10/30 01:35:52;;;;;;;33.78;19.60;;;;;;;9.51;100.00;98571.86;1777519;80;21001;-81
2022/10/30 01:38:32;;;;;;;33.10;19.57;;;;;;;9.51;100.00;98574.56;1777809;80;21050;-81
2022/10/30 01:40:58;;;;;;;37.40;21.17;;;;;;;9.53;100.00;98579.98;1757035;80;21170;-81
2022/10/30 01:43:24;;;;;;;33.92;19.75;;;;;;;9.48;100.00;98573.70;1766974;80;20953;-81
2022/10/30 01:46:20;;;;;;;31.17;18.67;;;;;;;9.45;100.00;98568.83;1725866;83;20968;-83
2022/10/30 01:49:06;;;;;;;36.90;18.70;;;;;;;9.43;100.00;98562.87;1725607;83;20985;-81
2022/10/30 01:51:43;;;;;;;33.25;19.62;;;;;;;9.41;100.00;98547.44;1725844;83;21012;-81
2022/10/30 01:54:27;;;;;;;37.28;20.70;;;;;;;9.38;100.00;98552.81;1725806;82;21266;-83
2022/10/30 01:57:10;;;;;;;31.90;18.30;;;;;;;9.33;100.00;98540.08;1726119;82;20965;-81
2022/10/30 01:59:50;;;;;;;29.35;17.37;;;;;;;9.32;100.00;98540.34;1726014;82;21005;-82
2022/10/30 02:02:16;;;;;;;26.85;16.00;;;;;;;9.31;100.00;98553.56;1725723;83;20997;-83
2022/10/30 02:04:42;;;;;;;25.92;16.60;;;;;;;9.29;100.00;98551.66;1726016;83;20894;-82
2022/10/30 02:07:10;;;;;;;26.57;17.92;;;;;;;9.32;100.00;98561.98;1706641;82;21306;-81
2022/10/30 02:09:36;;;;;;;29.27;17.52;;;;;;;9.34;100.00;98565.23;1744998;82;21021;-81
2022/10/30 02:12:02;;;;;;;35.75;19.60;;;;;;;9.33;100.00;98565.77;1745127;82;20905;-82
2022/10/30 02:14:32;;;;;;;31.97;16.73;;;;;;;9.35;100.00;98559.28;1745130;82;20988;-81
2022/10/30 02:16:59;;;;;;;26.95;14.65;;;;;;;9.31;100.00;98558.97;1745216;82;21020;-82
2022/10/30 02:19:25;;;;;;;23.40;14.33;;;;;;;9.31;100.00;98553.05;1744837;82;21170;-83
2022/10/30 02:21:51;;;;;;;27.10;15.28;;;;;;;9.30;100.00;98547.88;1745208;82;20842;-81
2022/10/30 02:24:17;;;;;;;37.65;20.12;;;;;;;9.30;100.00;98538.41;1712341;82;20877;-82
2022/10/30 02:26:42;;;;;;;41.30;22.42;;;;;;;9.29;100.00;98543.00;1726202;83;20984;-81
2022/10/30 02:29:08;;;;;;;45.45;27.05;;;;;;;9.30;100.00;98547.34;1725855;83;20894;-81
2022/10/30 02:31:34;;;;;;;32.23;20.52;;;;;;;9.36;100.00;98549.55;1726205;83;21148;-83
2022/10/30 02:34:00;;;;;;;33.45;19.12;;;;;;;9.36;100.00;98545.50;1703056;83;21004;-83
2022/10/30 02:36:26;;;;;;;28.70;17.48;;;;;;;9.32;100.00;98542.51;1726138;83;20960;-82
2022/10/30 02:38:54;;;;;;;23.52;16.00;;;;;;;9.29;100.00;98544.36;1725787;83;20929;-82
2022/10/30 02:41:22;;;;;;;30.92;15.45;;;;;;;9.29;100.00;98546.25;1726111;83;21013;-83
2022/10/30 02:43:49;;;;;;;27.65;13.60;;;;;;;9.24;100.00;98548.93;1715564;82;21203;-83
2022/10/30 02:46:15;;;;;;;28.60;16.70;;;;;;;9.21;100.00;98552.94;1696662;84;20983;-82
2022/10/30 02:48:41;;;;;;;23.18;15.30;;;;;;;9.18;100.00;98554.00;1696803;84;20984;-82
2022/10/30 02:51:06;;;;;;;31.90;17.98;;;;;;;9.12;100.00;98563.14;1696944;84;20954;-83
2022/10/30 02:53:33;;;;;;;29.60;16.27;;;;;;;9.08;100.00;98564.73;1696527;84;37608;-82
2022/10/30 02:56:04;;;;;;;27.37;16.37;;;;;;;9.04;100.00;98563.88;1696754;84;21123;-82
2022/10/30 02:58:30;;;;;;;29.65;16.85;;;;;;;9.02;100.00;98566.03;1696821;84;20987;-83
2022/10/30 03:00:56;;;;;;;32.28;17.30;;;;;;;8.98;100.00;98568.16;1696811;84;20959;-82
2022/10/30 03:03:22;;;;;;;32.65;16.87;;;;;;;8.94;100.00;98563.79;1696879;84;21560;-82
2022/10/30 03:05:48;;;;;;;38.58;20.15;;;;;;;8.92;100.00;98563.77;1696853;84;21033;-81
2022/10/30 03:08:14;;;;;;;37.67;20.27;;;;;;;8.94;100.00;98565.67;1712813;83;21851;-82
2022/10/30 03:10:40;;;;;;;33.10;20.68;;;;;;;8.96;100.00;98562.98;1711429;83;21370;-82
2022/10/30 03:13:06;;;;;;;34.13;21.25;;;;;;;9.01;100.00;98564.41;1722213;83;20976;-82
2022/10/30 03:15:32;;;;;;;31.37;17.77;;;;;;;9.05;100.00;98564.70;1719201;82;20936;-81
2022/10/30 03:17:58;;;;;;;30.92;17.17;;;;;;;9.05;100.00;98571.45;1722275;82;20838;-81
2022/10/30 03:20:24;;;;;;;30.82;15.65;;;;;;;9.01;100.00;98562.23;1722485;82;21169;-81
2022/10/30 03:22:49;;;;;;;28.52;16.10;;;;;;;8.98;100.00;98560.06;1722127;82;20941;-83
2022/10/30 03:25:16;;;;;;;23.50;14.53;;;;;;;8.93;100.00;98558.11;1724765;82;20890;-83
2022/10/30 03:27:42;;;;;;;27.32;16.48;;;;;;;8.91;100.00;98571.06;1726120;82;21005;-81
2022/10/30 03:30:09;;;;;;;29.45;16.55;;;;;;;8.87;100.00;98573.17;1725971;83;21591;-81
2022/10/30 03:32:35;;;;;;;27.98;16.45;;;;;;;8.84;100.00;98567.75;1725927;82;21449;-81
2022/10/30 03:35:01;;;;;;;27.58;16.05;;;;;;;8.73;100.00;98557.38;1726037;83;20949;-82
2022/10/30 03:37:27;;;;;;;29.85;16.97;;;;;;;8.72;100.00;98557.10;1726002;83;20906;-82
2022/10/30 03:39:53;;;;;;;30.65;17.60;;;;;;;8.68;100.00;98553.27;1725986;83;20889;-82
2022/10/30 03:42:19;;;;;;;27.45;17.75;;;;;;;8.68;100.00;98555.96;1726116;83;20930;-82
2022/10/30 03:44:45;;;;;;;29.23;17.30;;;;;;;8.62;100.00;98553.45;1704068;83;21097;-82
2022/10/30 03:47:11;;;;;;;27.75;17.02;;;;;;;8.58;100.00;98559.91;1696935;84;20975;-83
2022/10/30 03:49:37;;;;;;;28.73;18.15;;;;;;;8.57;100.00;98562.34;1696973;84;21130;-83
2022/10/30 03:52:03;;;;;;;26.75;16.55;;;;;;;8.57;100.00;98558.28;1696846;84;20895;-81
2022/10/30 03:54:29;;;;;;;27.05;15.58;;;;;;;8.56;100.00;98561.24;1696881;84;21015;-82
2022/10/30 03:56:54;;;;;;;26.57;16.00;;;;;;;8.57;100.00;98561.52;1697036;84;21050;-81
2022/10/30 03:59:20;;;;;;;27.58;16.57;;;;;;;8.58;100.00;98561.80;1696704;84;20895;-81
2022/10/30 04:01:46;;;;;;;25.23;16.75;;;;;;;8.56;100.00;98547.20;1697037;84;21018;-82
2022/10/30 04:04:12;;;;;;;33.98;17.62;;;;;;;8.53;100.00;98554.97;1696785;84;20974;-82
2022/10/30 04:06:38;;;;;;;30.27;17.40;;;;;;;8.45;100.00;98550.30;1696871;84;21014;-81
2022/10/30 04:09:04;;;;;;;36.40;17.87;;;;;;;8.40;100.00;98554.84;1721280;83;21082;-81
2022/10/30 04:11:30;;;;;;;29.75;18.98;;;;;;;8.34;100.00;98562.03;1721875;82;20877;-81
2022/10/30 04:13:56;;;;;;;27.87;15.48;;;;;;;8.32;100.00;98557.42;1722225;82;20965;-82
2022/10/30 04:16:22;;;;;;;32.53;17.92;;;;;;;8.34;100.00;98549.88;1714631;82;20954;-83
2022/10/30 04:18:48;;;;;;;27.22;17.23;;;;;;;8.31;100.00;98560.37;1711018;82;20906;-82
2022/10/30 04:21:14;;;;;;;36.60;16.82;;;;;;;8.35;100.00;98560.17;1707826;84;21624;-82
2022/10/30 04:23:39;;;;;;;24.10;15.50;;;;;;;8.35;100.00;98560.98;1707921;84;20875;-83
2022/10/30 04:26:05;;;;;;;24.92;14.13;;;;;;;8.33;100.00;98569.85;1705037;84;20937;-82
2022/10/30 04:28:31;;;;;;;25.65;15.85;;;;;;;8.33;100.00;98569.03;1713388;83;20878;-82
2022/10/30 04:30:57;;;;;;;33.15;15.53;;;;;;;8.34;100.00;98562.56;1714332;83;20909;-82
2022/10/30 04:33:23;;;;;;;26.95;14.55;;;;;;;8.35;100.00;98563.69;1715055;82;21154;-81
2022/10/30 04:35:49;;;;;;;24.72;14.68;;;;;;;8.33;100.00;98557.70;1704542;82;20929;-81
2022/10/30 04:38:15;;;;;;;28.20;16.17;;;;;;;8.29;100.00;98557.94;1711811;83;20850;-81
2022/10/30 04:40:42;;;;;;;25.80;16.17;;;;;;;8.23;100.00;98550.02;1714269;82;21037;-82
2022/10/30 04:43:08;;;;;;;28.12;15.68;;;;;;;8.14;100.00;98556.39;1722524;82;20988;-82
2022/10/30 04:45:34;;;;;;;31.23;15.55;;;;;;;8.11;100.00;98552.82;1725967;82;21144;-83
2022/10/30 04:48:11;;;;;;;27.60;14.90;;;;;;;8.04;100.00;98543.59;1725821;82;21061;-82
2022/10/30 04:50:37;;;;;;;23.98;15.55;;;;;;;8.03;100.00;98547.36;1724450;82;20941;-82
2022/10/30 04:53:16;;;;;;;35.03;18.07;;;;;;;8.03;100.00;98545.16;1711530;83;21021;-82
2022/10/30 04:55:42;;;;;;;31.90;17.25;;;;;;;7.91;100.00;98546.64;1715356;82;21033;-81
2022/10/30 04:58:09;;;;;;;30.40;16.52;;;;;;;7.77;100.00;98549.40;1711827;82;21711;-82
2022/10/30 05:00:35;;;;;;;36.10;18.60;;;;;;;7.75;100.00;98542.91;1691553;83;20932;-81
2022/10/30 05:03:01;;;;;;;34.23;18.95;;;;;;;7.74;100.00;98544.51;1721375;82;21036;-82
2022/10/30 05:05:28;;;;;;;26.50;16.42;;;;;;;7.72;100.00;98547.45;1706379;83;21410;-82
2022/10/30 05:07:54;;;;;;;32.85;15.98;;;;;;;7.68;100.00;98547.66;1700311;82;21089;-82
2022/10/30 05:10:20;;;;;;;29.37;15.65;;;;;;;7.68;100.00;98561.67;1708083;83;21158;-81
2022/10/30 05:12:46;;;;;;;25.43;13.75;;;;;;;7.67;100.00;98564.09;1708102;84;20969;-81
2022/10/30 05:15:12;;;;;;;25.88;15.43;;;;;;;7.62;100.00;98559.45;1708083;84;20902;-82
2022/10/30 05:17:38;;;;;;;23.90;14.15;;;;;;;7.62;100.00;98560.27;1708132;84;21046;-82
2022/10/30 05:20:05;;;;;;;28.60;16.62;;;;;;;7.62;100.00;98564.32;1708189;83;21113;-81
2022/10/30 05:22:31;;;;;;;27.15;15.00;;;;;;;7.62;100.00;98557.58;1707954;83;21129;-82
2022/10/30 05:24:57;;;;;;;23.30;13.62;;;;;;;7.67;100.00;98563.56;1706820;84;20975;-82
2022/10/30 05:27:22;;;;;;;24.55;15.05;;;;;;;7.70;100.00;98564.43;1713776;83;20854;-81
2022/10/30 05:29:48;;;;;;;32.23;17.60;;;;;;;7.70;100.00;98567.13;1722726;82;20920;-83
2022/10/30 05:32:14;;;;;;;28.47;15.68;;;;;;;7.63;100.00;98568.64;1711880;83;20897;-81
2022/10/30 05:34:41;;;;;;;31.02;16.40;;;;;;;7.60;100.00;98572.34;1714166;82;22071;-81
2022/10/30 05:37:07;;;;;;;27.93;15.08;;;;;;;7.55;100.00;98570.41;1706664;83;20862;-82
2022/10/30 05:39:32;;;;;;;27.95;15.58;;;;;;;7.51;100.00;98571.13;1711918;83;20937;-82
2022/10/30 05:41:58;;;;;;;27.15;15.68;;;;;;;7.53;100.00;98570.38;1714333;83;21343;-82
2022/10/30 05:44:24;;;;;;;26.65;14.38;;;;;;;7.55;100.00;98566.36;1724165;83;21044;-83
2022/10/30 05:46:50;;;;;;;25.82;13.75;;;;;;;7.57;100.00;98568.81;1725927;83;21192;-82
2022/10/30 05:49:16;;;;;;;24.47;13.98;;;;;;;7.58;100.00;98572.60;1725858;83;20902;-81
2022/10/30 05:51:43;;;;;;;25.48;13.68;;;;;;;7.62;100.00;98570.25;1725912;83;20981;-82
2022/10/30 05:54:08;;;;;;;27.22;14.47;;;;;;;7.61;100.00;98570.78;1725978;83;21480;-82
2022/10/30 05:56:34;;;;;;;20.97;12.68;;;;;;;7.61;100.00;98565.92;1725893;83;20871;-81
2022/10/30 05:59:00;;;;;;;25.72;13.18;;;;;;;7.62;100.00;98564.85;1725817;83;21177;-82
2022/10/30 06:01:26;;;;;;;24.35;12.00;;;;;;;7.67;100.00;98573.53;1725945;83;20889;-81
2022/10/30 06:03:52;;;;;;;22.22;12.70;;;;;;;7.66;100.00;98567.33;1725916;83;20941;-81
2022/10/30 06:06:18;;;;;;;23.22;14.95;;;;;;;7.71;100.00;98573.34;1725915;83;20874;-81
2022/10/30 06:08:44;;;;;;;22.75;13.35;;;;;;;7.71;100.00;98560.67;1722780;83;20861;-81
2022/10/30 06:11:10;;;;;;;30.52;15.63;;;;;;;7.71;100.00;98564.72;1722251;82;22022;-82
2022/10/30 06:13:36;;;;;;;24.77;14.55;;;;;;;7.66;100.00;98563.81;1721954;83;20885;-81
2022/10/30 06:16:01;;;;;;;23.60;13.83;;;;;;;7.67;100.00;98559.52;1722272;82;21016;-82
2022/10/30 06:18:27;;;;;;;32.75;14.23;;;;;;;7.66;100.00;98564.62;1722214;82;20870;-81
2022/10/30 06:20:55;;;;;;;23.35;14.03;;;;;;;7.66;100.00;98568.67;1722040;83;22039;-82
2022/10/30 06:23:20;;;;;;;27.45;13.98;;;;;;;7.69;100.00;98574.94;1722142;82;21046;-82
2022/10/30 06:25:46;;;;;;;30.88;14.45;;;;;;;7.72;100.00;98567.69;1715367;81;20838;-81
2022/10/30 06:28:13;;;;;;;34.18;16.80;;;;;;;7.74;100.00;98570.95;1708386;83;20996;-81
2022/10/30 06:30:39;;;;;;;27.35;16.60;;;;;;;7.79;100.00;98572.92;1705046;83;21001;-82
2022/10/30 06:33:05;;;;;;;23.57;14.10;;;;;;;7.81;100.00;98574.30;1716052;82;21615;-81
2022/10/30 06:35:30;;;;;;;28.75;17.17;;;;;;;7.89;100.00;98584.67;1714643;82;21363;-82
2022/10/30 06:38:00;;;;;;;35.08;21.02;;;;;;;8.00;100.00;98579.41;1714987;83;21630;-82
2022/10/30 06:40:28;;;;;;;58.55;26.02;;;;;;;8.09;100.00;98584.66;1714816;82;21449;-81
2022/10/30 06:42:54;;;;;;;145.02;55.08;;;;;;;8.22;100.00;98581.60;1715823;82;28194;-81
2022/10/30 06:45:21;;;;;;;73.40;34.18;;;;;;;8.46;100.00;98583.55;1658158;86;20974;-81
2022/10/30 06:47:47;;;;;;;33.55;17.95;;;;;;;8.74;100.00;98583.86;1648625;86;21209;-81
2022/10/30 06:50:16;;;;;;;30.43;16.80;;;;;;;8.92;100.00;98580.80;1648482;86;21108;-82
2022/10/30 06:52:42;;;;;;;27.32;19.07;;;;;;;9.03;100.00;98579.82;1665532;86;21005;-82
2022/10/30 06:55:09;;;;;;;30.60;15.78;;;;;;;9.07;100.00;98582.03;1665376;86;21022;-82
2022/10/30 06:57:34;;;;;;;40.08;16.35;;;;;;;9.17;100.00;98584.29;1648800;86;21026;-82
2022/10/30 07:00:01;;;;;;;31.52;14.83;;;;;;;9.26;100.00;98576.52;1664966;86;21285;-81
2022/10/30 07:02:27;;;;;;;26.57;17.17;;;;;;;9.23;100.00;98567.05;1664992;86;20994;-83
2022/10/30 07:04:53;;;;;;;24.12;13.10;;;;;;;9.34;100.00;98578.75;1681518;84;20967;-82
2022/10/30 07:07:19;;;;;;;25.62;13.68;;;;;;;9.34;100.00;98572.00;1685757;84;20930;-82
2022/10/30 07:09:45;;;;;;;20.15;12.88;;;;;;;9.42;100.00;98573.41;1714409;83;21052;-83
2022/10/30 07:12:11;;;;;;;22.70;12.90;;;;;;;9.47;100.00;98575.59;1711457;83;21151;-82
2022/10/30 07:14:37;;;;;;;23.95;13.58;;;;;;;9.50;100.00;98578.34;1704764;83;20885;-81
2022/10/30 07:17:03;;;;;;;24.02;13.32;;;;;;;9.54;100.00;98571.33;1704511;84;21406;-82
2022/10/30 07:19:29;;;;;;;25.43;14.23;;;;;;;9.62;100.00;98574.91;1704892;84;20957;-81
2022/10/30 07:21:55;;;;;;;22.77;13.35;;;;;;;9.72;100.00;98570.09;1714321;82;20945;-81
2022/10/30 07:24:21;;;;;;;19.25;13.75;;;;;;;9.82;100.00;98568.27;1711683;82;21087;-83
2022/10/30 07:26:47;;;;;;;26.65;14.53;;;;;;;9.92;100.00;98572.95;1709399;82;20850;-83
2022/10/30 07:29:13;;;;;;;28.23;16.00;;;;;;;10.02;100.00;98577.61;1706549;84;21575;-83
2022/10/30 07:31:38;;;;;;;34.05;16.23;;;;;;;10.13;100.00;98574.67;1708279;84;20851;-82
2022/10/30 07:34:04;;;;;;;25.50;15.28;;;;;;;10.25;100.00;98576.37;1708087;84;21028;-81
2022/10/30 07:36:30;;;;;;;25.43;15.98;;;;;;;10.35;100.00;98575.09;1708220;84;21149;-83
2022/10/30 07:38:56;;;;;;;31.40;14.60;;;;;;;10.47;100.00;98572.15;1708094;84;20874;-82
2022/10/30 07:41:22;;;;;;;30.50;19.07;;;;;;;10.61;100.00;98573.30;1708249;84;21643;-83
2022/10/30 07:43:48;;;;;;;30.97;20.00;;;;;;;10.72;100.00;98570.88;1697654;84;20896;-83
2022/10/30 07:46:14;;;;;;;31.77;19.48;;;;;;;10.82;100.00;98575.51;1679710;85;21011;-81
2022/10/30 07:48:40;;;;;;;25.27;15.28;;;;;;;10.94;100.00;98572.84;1679626;85;21208;-83
2022/10/30 07:51:06;;;;;;;31.02;17.00;;;;;;;11.05;100.00;98572.30;1679882;83;20872;-82
2022/10/30 07:53:32;;;;;;;22.55;15.13;;;;;;;11.20;100.00;98575.59;1679610;85;20919;-83
2022/10/30 07:55:58;;;;;;;29.85;17.87;;;;;;;11.32;100.00;98572.59;1679854;85;20908;-83
2022/10/30 07:58:24;;;;;;;32.28;17.92;;;;;;;11.45;100.00;98566.61;1679579;85;20980;-83
2022/10/30 08:00:49;;;;;;;23.80;14.15;;;;;;;11.56;100.00;98570.97;1679793;85;21252;-83
2022/10/30 08:03:15;;;;;;;18.57;12.55;;;;;;;11.66;100.00;98564.17;1679613;85;20876;-83
2022/10/30 08:05:41;;;;;;;24.27;13.30;;;;;;;11.79;100.00;98560.06;1679645;83;20919;-82
2022/10/30 08:08:07;;;;;;;28.52;17.40;;;;;;;11.93;100.00;98556.28;1694146;84;20866;-82
2022/10/30 08:10:34;;;;;;;35.00;20.70;;;;;;;12.09;100.00;98565.47;1704763;84;20891;-82
2022/10/30 08:13:00;;;;;;;37.15;21.10;;;;;;;12.24;100.00;98557.02;1704226;83;21122;-83
2022/10/30 08:15:26;;;;;;;39.03;18.92;;;;;;;12.38;100.00;98552.59;1704813;83;21002;-81
2022/10/30 08:17:52;;;;;;;23.57;16.20;;;;;;;12.53;100.00;98554.44;1704401;84;20941;-82
2022/10/30 08:20:20;;;;;;;28.15;16.05;;;;;;;12.72;100.00;98555.41;1704649;83;20893;-81
2022/10/30 08:22:51;;;;;;;28.05;12.00;;;;;;;12.89;100.00;98553.14;1714472;82;20969;-83
2022/10/30 08:25:18;;;;;;;23.02;11.88;;;;;;;13.04;100.00;98553.59;1700885;82;21118;-82
2022/10/30 08:27:57;;;;;;;15.83;11.22;;;;;;;13.26;100.00;98553.20;1709375;82;21038;-82
2022/10/30 08:30:25;;;;;;;17.25;9.83;;;;;;;13.45;100.00;98552.77;1708297;83;20978;-83
2022/10/30 08:32:51;;;;;;;25.50;10.50;;;;;;;13.70;100.00;98554.45;1708245;84;21009;-83
2022/10/30 08:35:17;;;;;;;20.25;8.98;;;;;;;13.82;100.00;98555.42;1695819;84;20886;-82
2022/10/30 08:37:43;;;;;;;23.85;9.98;;;;;;;13.93;100.00;98554.23;1708140;84;21064;-82
2022/10/30 08:40:10;;;;;;;28.17;12.10;;;;;;;14.08;100.00;98551.32;1708107;84;20851;-82
2022/10/30 08:42:36;;;;;;;22.17;13.60;;;;;;;14.20;100.00;98550.94;1707885;83;21478;-83
2022/10/30 08:45:02;;;;;;;27.73;15.78;;;;;;;14.32;100.00;98547.23;1683483;84;20881;-82
2022/10/30 08:47:28;;;;;;;29.25;12.37;;;;;;;14.44;100.00;98533.73;1679754;85;21027;-82
2022/10/30 08:49:54;;;;;;;18.35;9.10;;;;;;;14.54;100.00;98535.02;1679455;85;20943;-82
2022/10/30 08:52:20;;;;;;;21.10;9.00;;;;;;;14.66;100.00;98534.83;1679715;85;20971;-83
2022/10/30 08:54:46;;;;;;;13.43;7.40;;;;;;;14.87;100.00;98534.01;1679912;85;20932;-83
2022/10/30 08:57:11;;;;;;;22.90;7.62;;;;;;;15.11;100.00;98533.90;1679510;85;20897;-82
2022/10/30 08:59:37;;;;;;;15.85;7.67;;;;;;;15.29;100.00;98532.25;1679765;85;20983;-82
2022/10/30 09:02:03;;;;;;;15.35;7.20;;;;;;;15.44;100.00;98527.09;1679630;85;21100;-82
2022/10/30 09:04:29;;;;;;;34.85;10.60;;;;;;;15.61;100.00;98528.74;1679730;85;21602;-82
2022/10/30 09:06:55;;;;;;;22.82;10.93;;;;;;;15.73;100.00;98525.55;1681542;84;20896;-82
2022/10/30 09:09:21;;;;;;;26.75;10.85;;;;;;;15.83;100.00;98522.63;1704497;84;21040;-82
2022/10/30 09:11:50;;;;;;;24.90;9.85;;;;;;;15.96;100.00;98519.64;1704292;83;21017;-82
2022/10/30 09:14:16;;;;;;;16.15;8.33;;;;;;;16.06;100.00;98522.17;1704843;83;21060;-84
2022/10/30 09:16:42;;;;;;;19.82;9.83;;;;;;;16.14;100.00;98516.55;1704282;84;21045;-82
2022/10/30 09:19:09;;;;;;;18.10;11.08;;;;;;;16.26;100.00;98519.61;1704393;84;20854;-84
2022/10/30 09:21:35;;;;;;;18.40;10.55;;;;;;;16.38;100.00;98517.16;1704500;84;21081;-82
2022/10/30 09:24:01;;;;;;;11.35;7.00;;;;;;;16.44;100.00;98509.11;1704457;84;20894;-83
2022/10/30 09:26:27;;;;;;;15.83;8.93;;;;;;;16.59;99.74;98503.88;1707910;84;21101;-84
2022/10/30 09:28:53;;;;;;;15.30;7.72;;;;;;;16.74;100.00;98501.36;1672594;84;20998;-82
2022/10/30 09:31:19;;;;;;;18.10;7.10;;;;;;;16.91;98.65;98494.11;1708100;84;20950;-82
2022/10/30 09:33:45;;;;;;;18.57;7.42;;;;;;;17.05;98.21;98484.49;1707947;84;20939;-84
2022/10/30 09:36:11;;;;;;;13.68;7.17;;;;;;;17.20;97.84;98488.23;1708124;84;20910;-84
2022/10/30 09:38:37;;;;;;;13.68;7.83;;;;;;;17.35;97.21;98486.25;1707974;84;21810;-84
2022/10/30 09:41:23;;;;;;;21.02;11.22;;;;;;;17.41;97.16;98484.97;1708053;84;20863;-84
2022/10/30 09:44:15;;;;;;;19.52;10.63;;;;;;;17.52;97.08;98478.66;1697284;83;21022;-84
2022/10/30 09:46:59;;;;;;;17.12;8.55;;;;;;;17.71;95.74;98481.48;1657560;85;21007;-83
2022/10/30 09:49:37;;;;;;;19.62;8.33;;;;;;;17.88;94.53;98477.20;1679215;85;20996;-82
2022/10/30 09:52:14;;;;;;;23.50;8.47;;;;;;;18.03;94.45;98481.70;1679677;85;21833;-84
2022/10/30 09:54:52;;;;;;;15.13;7.28;;;;;;;18.12;93.96;98480.92;1679719;85;21459;-82
2022/10/30 09:57:38;;;;;;;12.05;6.20;;;;;;;18.30;93.79;98477.10;1679501;85;21023;-84
2022/10/30 10:00:11;;;;;;;16.85;6.87;;;;;;;18.44;92.59;98475.58;1679392;83;20984;-82
2022/10/30 10:02:59;;;;;;;14.73;6.15;;;;;;;18.48;93.98;98475.20;1658980;85;20999;-83
2022/10/30 10:05:45;;;;;;;16.50;5.65;;;;;;;18.65;90.81;98469.77;1679329;85;26879;-84
2022/10/30 10:08:21;;;;;;;11.68;5.85;;;;;;;18.78;91.39;98467.41;1694354;84;20990;-84
2022/10/30 10:10:52;;;;;;;18.70;7.53;;;;;;;18.91;91.72;98466.22;1714588;82;21032;-82
2022/10/30 10:13:57;;;;;;;15.10;7.03;;;;;;;18.92;92.04;98460.97;1721986;82;20965;-82
2022/10/30 10:16:29;;;;;;;12.25;5.35;;;;;;;18.90;92.37;98457.18;1722268;82;20989;-84
2022/10/30 10:19:21;;;;;;;15.48;5.33;;;;;;;18.91;91.42;98457.42;1722079;83;21082;-82
2022/10/30 10:21:56;;;;;;;13.45;6.17;;;;;;;18.99;91.13;98459.92;1722480;82;20966;-84
2022/10/30 10:24:29;;;;;;;20.27;6.67;;;;;;;19.06;91.51;98454.19;1722497;82;21509;-83
2022/10/30 10:27:17;;;;;;;16.73;5.35;;;;;;;19.14;90.14;98456.66;1775748;80;21000;-84
2022/10/30 10:30:05;;;;;;;12.85;5.08;;;;;;;19.26;89.26;98456.00;1777745;80;21511;-83
2022/10/30 10:32:40;;;;;;;;;;;;;;;19.34;89.41;98457.94;1779048;80;21142;-84
2022/10/30 10:35:27;;;;;;;27.10;12.40;;;;;;;19.32;91.21;98459.64;1777112;80;20262;-83
2022/10/30 10:38:02;;;;;;;19.07;8.33;;;;;;;19.32;89.26;98459.64;1777362;80;20964;-83
2022/10/30 10:40:45;;;;;;;15.95;6.47;;;;;;;19.31;89.88;98459.94;1777278;80;21488;-83
2022/10/30 10:43:40;;;;;;;21.87;6.40;;;;;;;19.29;89.39;98458.09;1771946;80;21512;-82
2022/10/30 10:46:32;;;;;;;13.50;5.20;;;;;;;19.31;89.70;98456.66;1726169;83;21005;-84
2022/10/30 10:49:15;;;;;;;14.47;5.42;;;;;;;19.39;88.72;98454.99;1725755;82;21414;-82
2022/10/30 10:51:45;;;;;;;20.57;5.75;;;;;;;19.42;88.07;98451.61;1725989;83;21233;-82
2022/10/30 10:54:18;;;;;;;16.80;7.50;;;;;;;19.42;88.26;98455.17;1725155;83;21398;-84
2022/10/30 10:56:46;;;;;;;14.53;6.62;;;;;;;19.42;88.32;98451.05;1726152;83;20977;-83
2022/10/30 10:59:19;;;;;;;16.55;6.85;;;;;;;19.46;87.83;98458.05;1726084;82;21321;-84
2022/10/30 11:01:54;;;;;;;17.40;5.12;;;;;;;19.55;82.81;98452.53;1726072;82;21012;-82
2022/10/30 11:04:37;;;;;;;19.35;9.03;;;;;;;19.75;84.11;98450.50;1721196;82;21028;-82
2022/10/30 11:07:22;;;;;;;22.02;8.33;;;;;;;19.89;76.13;98448.31;1717896;80;21044;-84
2022/10/30 11:09:52;;;;;;;17.45;5.37;;;;;;;19.99;81.87;98449.31;1727069;81;21060;-85
2022/10/30 11:12:26;;;;;;;13.75;4.75;;;;;;;20.09;79.32;98445.41;1726066;83;21215;-83
2022/10/30 11:14:52;;;;;;;22.42;7.90;;;;;;;20.16;80.57;98440.73;1726190;82;20998;-82
2022/10/30 11:17:30;;;;;;;19.17;9.30;;;;;;;20.18;80.99;98432.41;1726039;83;20968;-82
2022/10/30 11:20:02;;;;;;;19.45;10.48;;;;;;;20.32;73.96;98434.09;1725959;83;20978;-84
2022/10/30 11:22:32;;;;;;;16.12;6.42;;;;;;;20.48;75.36;98431.02;1726064;82;20982;-84
2022/10/30 11:25:24;;;;;;;15.90;5.37;;;;;;;20.48;72.28;98428.27;1701965;82;21251;-82
2022/10/30 11:27:55;;;;;;;12.63;4.58;;;;;;;20.58;76.56;98426.48;1711689;83;21014;-84